Архив погоды в Курске

Метеограмма Курск
Понедельник, 25 Июня
Время местн. Темп Ветер Видим Явления Облачность нижн/средн/верх Атм. давл. Влжн Точка росы ВНГО R Сост. почвы Tg s
Напр Скр Прв ур.ст ур.м изм
03:00 +9.5° З 1 - 10 км - ясно 742 765 +1.1 88% +7.6° более 2.5 км - - - -
00:00 +11.1° штиль 0 - 10 км - незначительная облачность 741 763 +0.8 84% +8.5° более 2.5 км - - - -
Воскресенье, 24 Июня
Время местн. Темп Ветер Видим Явления Облачность нижн/средн/верх Атм. давл. Влжн Точка росы ВНГО R Сост. почвы Tg s
Напр Скр Прв ур.ст ур.м изм
21:00 +13.7° З 1 - 10 км - облачно с прояснениями 740 762 +1.1 67% +7.7° 1 км 5 - - -
18:00 +15.7° З 3 - 10 км - облачно с прояснениями 739 761 +0.8 60% +8° 1 км - - - -
15:00 +15.1° З 4 - 10 км небо без изменений {ливневые осадки} преимущественно облачно 738 760 +1.1 72% +10° 1 км - - - -
12:00 +12.6° З 3 - 4 км слабый ливневый дождь облачно 737 759 +1.9 91% +11.1° 1 км - - - -
09:00 +14° З,С-З 2 - 4 км слабый ливневый дождь облачно 735 757 +0.7 91% +12.6° 1 км 8 Влажная (без луж) +18° -
06:00 +18° З 2 - 4 км слабый ливневый дождь облачно 735 756 +0.7 92% +16.7° 1 км - - - -
03:00 +18.3° штиль 0 - 10 км небо без изменений {ливневые осадки} облачно 734 756 +0.3 84% +15.5° 1 км - - - -
00:00 +21.1° В 1 - 10 км - облачно с прояснениями 734 755 -0.6 55% +11.7° - - - - -
Суббота, 23 Июня
Время местн. Темп Ветер Видим Явления Облачность нижн/средн/верх Атм. давл. Влжн Точка росы ВНГО R Сост. почвы Tg s
Напр Скр Прв ур.ст ур.м изм
21:00 +22.5° штиль 0 - 10 км - преимущественно облачно 734 756 +1.2 48% +11.1° 1 км 0 - - -
18:00 +31.1° Ю,Ю-В 5 10 10 км - преимущественно облачно 733 754 -0.8 19% +5° 1 км - - - -
15:00 +32.5° Ю,Ю-В 5 - 10 км - облачно с прояснениями 734 755 -1 19% +5.8° 1 км - - - -
12:00 +30.8° Ю 4 - 10 км - переменная облачность 735 756 -0.3 27% +9.7° 1 км - - - -
09:00 +25.8° Ю,Ю-В 4 - 10 км - переменная облачность 735 756 -0.6 35% +9.2° 1 км 0 - - -
06:00 +21.4° В,Ю-В 2 - 10 км - преимущественно облачно 736 757 -0.4 46% +9.2° - - - - -
03:00 +21.5° В,Ю-В 2 - 10 км - переменная облачность 736 758 0 51% +10.8° более 2.5 км - - - -
00:00 +23.6° В,Ю-В 1 - 10 км - ясно 736 757 -0.3 46% +11.3° более 2.5 км - - - -
Пятница, 22 Июня
Время местн. Темп Ветер Видим Явления Облачность нижн/средн/верх Атм. давл. Влжн Точка росы ВНГО R Сост. почвы Tg s
Напр Скр Прв ур.ст ур.м изм
21:00 +25.2° штиль 0 - 10 км - преимущественно облачно 737 758 +0.3 42% +11.5° более 2.5 км 0 - - -
18:00 +30.1° Ю 2 10 10 км - переменная облачность 736 757 -0.7 28% +9.5° 1 км - - - -
15:00 +29.9° Ю,Ю-З 4 10 10 км - облачно с прояснениями 737 758 -1 28% +9.4° 1 км - - - -
12:00 +28.5° Ю-З 3 - 10 км - облачно с прояснениями 738 759 -0.3 30% +9.3° 1 км - - - -
09:00 +25° Ю 3 - 10 км - ясно 738 759 -0.5 44% +11.8° более 2.5 км 0 Сухая (без трещин) +15° -
06:00 +19.3° Ю,Ю-В 1 - 10 км - переменная облачность 739 760 -0.3 62% +11.9° более 2.5 км - - - -
03:00 +17.5° Ю-В 1 - 10 км - ясно 739 761 -0.2 66% +11.1° более 2.5 км - - - -
00:00 +19.3° Ю 1 - 10 км - ясно 739 761 +0.1 57% +10.7° более 2.5 км - - - -